createdAt,value
2023-03-24T00:01:44.728Z,99370.05
2023-03-24T00:04:16.588Z,99365.38
2023-03-24T00:06:49.684Z,99364.09
2023-03-24T00:09:19.448Z,99361.85
2023-03-24T00:11:51.332Z,99360.70
2023-03-24T00:14:21.001Z,99364.10
2023-03-24T00:16:53.308Z,99367.86
2023-03-24T00:19:24.126Z,99366.97
2023-03-24T00:21:56.335Z,99363.85
2023-03-24T00:24:26.323Z,99369.65
2023-03-24T00:26:58.759Z,99370.36
2023-03-24T00:29:31.451Z,99359.33
2023-03-24T00:32:02.508Z,99353.48
2023-03-24T00:34:34.768Z,99357.50
2023-03-24T00:37:05.155Z,99351.53
2023-03-24T00:39:34.582Z,99353.33
2023-03-24T00:42:06.219Z,99356.14
2023-03-24T00:44:36.570Z,99352.91
2023-03-24T00:47:07.065Z,99353.25
2023-03-24T00:49:50.000Z,99347.27
2023-03-24T00:52:21.448Z,99341.96
2023-03-24T00:54:58.702Z,99340.11
2023-03-24T00:57:30.461Z,99338.52
2023-03-24T00:59:59.793Z,99334.30
2023-03-24T01:02:32.545Z,99334.83
2023-03-24T01:05:04.579Z,99337.00
2023-03-24T01:07:35.508Z,99338.64
2023-03-24T01:10:08.818Z,99331.88
2023-03-24T01:12:38.545Z,99321.40
2023-03-24T01:15:15.304Z,99316.34
2023-03-24T01:17:47.476Z,99320.83
2023-03-24T01:20:20.602Z,99312.89
2023-03-24T01:22:52.795Z,99310.25
2023-03-24T01:25:27.134Z,99307.76
2023-03-24T01:27:57.245Z,99308.73
2023-03-24T01:30:29.444Z,99303.85
2023-03-24T01:33:00.935Z,99303.75
2023-03-24T01:35:31.328Z,99302.29
2023-03-24T01:38:02.035Z,99301.69
2023-03-24T01:40:34.115Z,99296.05
2023-03-24T01:43:04.382Z,99294.91
2023-03-24T01:45:59.690Z,99290.98
2023-03-24T01:48:33.071Z,99289.34
2023-03-24T01:51:03.453Z,99289.79
2023-03-24T01:53:35.469Z,99290.09
2023-03-24T01:56:08.291Z,99287.48
2023-03-24T01:58:44.916Z,99293.73
2023-03-24T02:01:30.357Z,99295.85
2023-03-24T02:04:13.267Z,99293.94
2023-03-24T02:06:44.582Z,99295.67
2023-03-24T02:09:16.009Z,99297.55
2023-03-24T02:11:46.234Z,99300.64
2023-03-24T02:14:16.929Z,99298.52
2023-03-24T02:16:50.195Z,99293.96
2023-03-24T02:19:42.314Z,99296.48
2023-03-24T02:22:14.643Z,99292.22
2023-03-24T02:25:04.745Z,99291.11
2023-03-24T02:27:55.925Z,99292.84
2023-03-24T02:30:42.623Z,99285.15
2023-03-24T02:33:14.661Z,99281.98
2023-03-24T02:35:47.053Z,99280.38
2023-03-24T02:38:29.321Z,99274.48
2023-03-24T02:41:02.967Z,99269.68
2023-03-24T02:43:51.382Z,99267.83
2023-03-24T02:46:26.219Z,99274.89
2023-03-24T02:49:07.954Z,99274.52
2023-03-24T02:51:44.147Z,99269.22
2023-03-24T02:54:17.266Z,99268.44
2023-03-24T02:57:07.118Z,99268.34
2023-03-24T03:00:01.216Z,99267.39
2023-03-24T03:03:04.421Z,99266.48
2023-03-24T03:05:40.057Z,99268.96
2023-03-24T03:08:13.169Z,99269.95
2023-03-24T03:10:45.816Z,99267.06
2023-03-24T03:13:35.936Z,99266.73
2023-03-24T03:16:09.447Z,99272.77
2023-03-24T03:18:46.935Z,99277.79
2023-03-24T03:21:17.437Z,99273.20
2023-03-24T03:24:09.879Z,99275.90
2023-03-24T03:26:41.662Z,99275.74
2023-03-24T03:29:18.058Z,99276.77
2023-03-24T03:32:00.196Z,99278.95
2023-03-24T03:34:38.072Z,99279.79
2023-03-24T03:37:11.083Z,99280.64
2023-03-24T03:39:50.350Z,99279.06
2023-03-24T03:42:22.838Z,99283.40
2023-03-24T03:44:53.234Z,99278.34
2023-03-24T03:47:24.286Z,99275.89
2023-03-24T03:49:56.450Z,99275.85
2023-03-24T03:52:27.955Z,99269.11
2023-03-24T03:54:59.785Z,99266.70
2023-03-24T03:57:33.261Z,99264.70
2023-03-24T04:00:29.916Z,99264.64
2023-03-24T04:03:40.180Z,99268.59
2023-03-24T04:06:27.598Z,99266.88
2023-03-24T04:09:05.916Z,99257.93
2023-03-24T04:12:05.081Z,99255.18
2023-03-24T04:14:58.511Z,99255.19
2023-03-24T04:17:57.630Z,99250.72
2023-03-24T04:20:54.439Z,99246.62
2023-03-24T04:23:50.332Z,99243.95
2023-03-24T04:26:43.030Z,99243.06
2023-03-24T04:29:19.753Z,99236.09
2023-03-24T04:31:56.439Z,99233.01
2023-03-24T04:34:42.142Z,99233.45
2023-03-24T04:37:29.042Z,99230.29
2023-03-24T04:40:04.974Z,99231.48
2023-03-24T04:42:56.724Z,99233.36
2023-03-24T04:45:33.857Z,99227.52
2023-03-24T04:48:26.674Z,99222.69
2023-03-24T04:51:23.641Z,99220.38
2023-03-24T04:54:03.686Z,99216.77
2023-03-24T04:56:55.197Z,99210.88
2023-03-24T04:59:37.564Z,99205.84
2023-03-24T05:02:09.655Z,99202.66
2023-03-24T05:04:58.426Z,99202.56
2023-03-24T05:07:36.532Z,99201.64
2023-03-24T05:10:09.911Z,99203.43
2023-03-24T05:12:45.580Z,99200.86
2023-03-24T05:15:35.382Z,99198.63
2023-03-24T05:18:19.289Z,99193.20
2023-03-24T05:20:49.163Z,99192.20
2023-03-24T05:23:22.776Z,99194.38
2023-03-24T05:25:53.215Z,99194.16
2023-03-24T05:28:24.371Z,99192.00
2023-03-24T05:30:54.830Z,99192.45
2023-03-24T05:33:40.871Z,99192.23
2023-03-24T05:36:12.426Z,99194.42
2023-03-24T05:38:43.439Z,99193.41
2023-03-24T05:41:12.183Z,99191.03
2023-03-24T05:43:44.921Z,99191.81
2023-03-24T05:46:16.232Z,99187.19
2023-03-24T05:48:48.963Z,99179.86
2023-03-24T05:51:19.915Z,99177.23
2023-03-24T05:54:05.071Z,99172.25
2023-03-24T05:56:40.404Z,99167.11
2023-03-24T05:59:36.143Z,99159.73
2023-03-24T06:02:37.404Z,99144.71
2023-03-24T06:05:12.940Z,99145.48
2023-03-24T06:07:44.662Z,99137.33
2023-03-24T06:29:06.779Z,99128.65
2023-03-24T06:31:39.684Z,99129.24
2023-03-24T06:34:12.270Z,99126.44
2023-03-24T06:36:47.397Z,99126.25
2023-03-24T06:39:17.349Z,99129.27
2023-03-24T06:41:50.334Z,99129.92
2023-03-24T06:44:42.811Z,99130.70
2023-03-24T06:47:15.991Z,99132.16
2023-03-24T06:50:06.456Z,99134.94
2023-03-24T06:52:38.272Z,99124.46
2023-03-24T06:55:10.124Z,99121.45
2023-03-24T06:57:40.419Z,99116.73
2023-03-24T07:00:31.011Z,99110.42
2023-03-24T07:03:25.499Z,99110.25
2023-03-24T07:06:20.036Z,99109.64
2023-03-24T07:08:59.500Z,99104.16
2023-03-24T07:11:30.227Z,99097.92
2023-03-24T07:14:02.739Z,99097.88
2023-03-24T07:17:25.586Z,99092.58
2023-03-24T07:20:19.147Z,99089.98
2023-03-24T07:23:00.690Z,99089.77
2023-03-24T07:25:50.801Z,99084.05
2023-03-24T07:28:51.914Z,99078.06
2023-03-24T07:31:41.777Z,99072.98
2023-03-24T07:34:19.761Z,99071.60
2023-03-24T07:36:51.218Z,99066.44
2023-03-24T07:39:22.029Z,99060.80
2023-03-24T07:41:55.002Z,99053.14
2023-03-24T07:44:35.178Z,99048.93
2023-03-24T07:47:06.300Z,99049.20
2023-03-24T07:50:17.367Z,99046.36
2023-03-24T07:53:10.149Z,99046.21
2023-03-24T07:55:40.556Z,99046.96
2023-03-24T07:58:16.494Z,99045.02
2023-03-24T08:01:00.194Z,99034.73
2023-03-24T08:03:38.316Z,99026.81
2023-03-24T08:06:31.547Z,99019.20
2023-03-24T08:09:04.996Z,99019.79
2023-03-24T08:11:34.992Z,99013.39
2023-03-24T08:14:06.318Z,99011.73
2023-03-24T08:16:35.550Z,99013.94
2023-03-24T08:19:06.241Z,99011.56
2023-03-24T08:21:36.525Z,99003.77
2023-03-24T08:24:10.577Z,99004.54
2023-03-24T08:26:47.564Z,99000.29
2023-03-24T08:29:25.135Z,99002.17
2023-03-24T08:32:03.308Z,99002.14
2023-03-24T08:34:41.921Z,99007.20
2023-03-24T08:37:15.457Z,99005.83
2023-03-24T08:39:45.113Z,99008.27
2023-03-24T08:42:15.525Z,99005.05
2023-03-24T08:44:46.962Z,99004.42
2023-03-24T08:47:16.187Z,99006.80
2023-03-24T08:49:47.256Z,99001.61
2023-03-24T08:52:20.942Z,99002.94
2023-03-24T08:54:58.797Z,98999.18
2023-03-24T08:57:34.277Z,98999.06
2023-03-24T09:00:13.321Z,98992.85
2023-03-24T09:02:47.411Z,98984.77
2023-03-24T09:05:29.362Z,98987.21
2023-03-24T09:08:09.607Z,98982.11
2023-03-24T09:10:52.973Z,98975.13
2023-03-24T09:13:23.523Z,98978.61
2023-03-24T09:15:55.186Z,98967.27
2023-03-24T09:18:26.671Z,98966.66
2023-03-24T09:20:57.390Z,98969.08
2023-03-24T09:23:57.034Z,98961.48
2023-03-24T09:26:34.265Z,98962.72
2023-03-24T09:29:05.055Z,98958.27
2023-03-24T09:31:36.064Z,98958.86
2023-03-24T09:34:05.357Z,98955.61
2023-03-24T09:36:37.863Z,98955.96
2023-03-24T09:39:09.263Z,98944.35
2023-03-24T09:41:40.132Z,98931.09
2023-03-24T09:44:23.134Z,98925.64
2023-03-24T09:47:04.980Z,98918.42
2023-03-24T09:49:39.102Z,98905.15
2023-03-24T09:52:13.960Z,98895.73
2023-03-24T09:54:47.952Z,98892.07
2023-03-24T09:57:21.647Z,98887.80
2023-03-24T09:59:52.433Z,98888.73
2023-03-24T10:02:22.865Z,98880.42
2023-03-24T10:04:54.024Z,98875.81
2023-03-24T10:07:24.722Z,98869.88
2023-03-24T10:09:57.137Z,98865.00
2023-03-24T10:12:27.135Z,98861.29
2023-03-24T10:15:30.894Z,98851.94
2023-03-24T10:18:07.966Z,98842.77
2023-03-24T10:20:45.701Z,98849.23
2023-03-24T10:23:18.321Z,98847.42
2023-03-24T10:26:05.444Z,98839.48
2023-03-24T10:29:03.703Z,98834.11
2023-03-24T10:31:36.876Z,98852.16
2023-03-24T10:34:11.130Z,98848.16
2023-03-24T10:36:42.023Z,98852.73
2023-03-24T10:39:22.366Z,98858.38
2023-03-24T10:41:57.381Z,98861.16
2023-03-24T10:44:29.452Z,98857.54
2023-03-24T10:47:01.687Z,98859.94
2023-03-24T10:49:33.338Z,98852.84
2023-03-24T10:52:04.371Z,98853.41
2023-03-24T10:54:34.440Z,98846.21
2023-03-24T10:57:05.565Z,98847.75
2023-03-24T10:59:39.482Z,98845.48
2023-03-24T11:02:11.753Z,98849.29
2023-03-24T11:04:43.412Z,98847.44
2023-03-24T11:07:18.152Z,98841.48
2023-03-24T11:09:56.907Z,98845.23
2023-03-24T11:12:31.152Z,98835.00
2023-03-24T11:15:22.486Z,98831.95
2023-03-24T11:18:46.711Z,98830.70
2023-03-24T11:21:17.311Z,98832.59
2023-03-24T11:23:48.804Z,98825.59
2023-03-24T11:26:18.820Z,98822.82
2023-03-24T11:28:53.931Z,98811.44
2023-03-24T11:31:31.308Z,98810.13
2023-03-24T11:34:09.377Z,98807.01
2023-03-24T11:36:45.596Z,98802.27
2023-03-24T11:39:22.729Z,98795.47
2023-03-24T11:42:10.712Z,98791.13
2023-03-24T11:44:47.250Z,98789.98
2023-03-24T11:47:39.422Z,98791.47
2023-03-24T11:50:11.431Z,98786.44
2023-03-24T11:52:56.086Z,98783.71
2023-03-24T11:55:47.846Z,98770.98
2023-03-24T11:58:20.386Z,98773.98
2023-03-24T12:00:57.118Z,98772.16
2023-03-24T12:03:34.553Z,98773.64
2023-03-24T12:06:26.148Z,98784.13
2023-03-24T12:09:07.049Z,98784.46
2023-03-24T12:11:55.872Z,98784.45
2023-03-24T12:14:30.680Z,98784.59
2023-03-24T12:17:50.807Z,98775.66
2023-03-24T12:20:27.563Z,98767.94
2023-03-24T12:23:00.927Z,98763.18
2023-03-24T12:25:57.453Z,98754.79
2023-03-24T12:28:41.771Z,98754.65
2023-03-24T12:31:20.883Z,98746.98
2023-03-24T12:33:50.103Z,98745.60
2023-03-24T12:36:37.665Z,98740.94
2023-03-24T12:39:14.007Z,98733.83
2023-03-24T12:41:50.722Z,98723.16
2023-03-24T12:44:34.259Z,98724.70
2023-03-24T12:47:23.266Z,98723.84
2023-03-24T12:50:06.266Z,98725.00
2023-03-24T12:52:51.131Z,98728.48
2023-03-24T12:55:31.913Z,98729.96
2023-03-24T12:58:07.151Z,98723.75
2023-03-24T13:00:42.213Z,98718.11
2023-03-24T13:03:21.900Z,98729.03
2023-03-24T13:05:59.771Z,98726.59
2023-03-24T13:08:38.403Z,98719.44
2023-03-24T13:11:16.882Z,98718.45
2023-03-24T13:13:56.891Z,98708.28
2023-03-24T13:16:30.275Z,98706.58
2023-03-24T13:19:02.742Z,98701.26
2023-03-24T13:21:35.705Z,98696.70
2023-03-24T13:24:11.205Z,98702.41
2023-03-24T13:26:45.435Z,98695.75
2023-03-24T13:29:45.577Z,98701.36
2023-03-24T13:32:22.226Z,98705.20
2023-03-24T13:34:58.911Z,98698.75
2023-03-24T13:37:39.892Z,98700.87
2023-03-24T13:40:20.603Z,98703.21
2023-03-24T13:42:57.231Z,98703.92
2023-03-24T13:45:35.836Z,98701.46
2023-03-24T13:48:11.250Z,98701.16
2023-03-24T13:50:43.243Z,98701.33
2023-03-24T13:53:17.959Z,98696.70
2023-03-24T13:55:51.368Z,98698.39
2023-03-24T13:58:26.161Z,98704.77
2023-03-24T14:01:15.130Z,98708.19
2023-03-24T14:03:48.831Z,98708.35
2023-03-24T14:06:20.658Z,98714.54
2023-03-24T14:08:53.259Z,98714.12
2023-03-24T14:11:34.557Z,98725.60
2023-03-24T14:14:28.600Z,98714.02
2023-03-24T14:17:18.513Z,98718.25
2023-03-24T14:19:48.297Z,98715.86
2023-03-24T14:22:26.655Z,98716.61
2023-03-24T14:25:02.952Z,98709.88
2023-03-24T14:27:39.010Z,98715.75
2023-03-24T14:30:12.155Z,98709.63
2023-03-24T14:32:53.903Z,98713.14
2023-03-24T14:35:25.828Z,98706.13
2023-03-24T14:38:00.658Z,98696.77
2023-03-24T14:40:36.186Z,98693.91
2023-03-24T14:43:16.571Z,98693.73
2023-03-24T14:45:57.445Z,98697.90
2023-03-24T14:48:58.019Z,98704.42
2023-03-24T14:51:37.034Z,98681.35
2023-03-24T14:54:33.535Z,98681.18
2023-03-24T14:57:04.195Z,98687.22
2023-03-24T14:59:53.711Z,98685.43
2023-03-24T15:02:23.780Z,98683.13
2023-03-24T15:05:25.886Z,98680.64
2023-03-24T15:08:13.304Z,98685.73
2023-03-24T15:10:55.095Z,98681.79
2023-03-24T15:13:42.776Z,98674.66
2023-03-24T15:16:41.988Z,98677.50
2023-03-24T15:19:21.742Z,98676.89
2023-03-24T15:22:03.812Z,98680.06
2023-03-24T15:24:35.350Z,98676.10
2023-03-24T15:27:07.007Z,98676.06
2023-03-24T15:29:41.212Z,98676.23
2023-03-24T15:32:19.611Z,98669.58
2023-03-24T15:34:51.474Z,98663.63
2023-03-24T15:37:27.502Z,98663.67
2023-03-24T15:40:12.559Z,98664.98
2023-03-24T15:42:46.908Z,98661.14
2023-03-24T15:45:23.163Z,98661.02
2023-03-24T15:47:54.290Z,98666.77
2023-03-24T15:50:32.894Z,98668.75
2023-03-24T15:53:08.147Z,98661.70
2023-03-24T15:55:38.692Z,98661.10
2023-03-24T15:58:28.704Z,98663.56
2023-03-24T16:01:00.083Z,98664.11
2023-03-24T16:03:34.354Z,98660.84
2023-03-24T16:06:13.273Z,98663.64
2023-03-24T16:08:43.384Z,98660.14
2023-03-24T16:11:14.835Z,98657.38
2023-03-24T16:13:47.272Z,98654.95
2023-03-24T16:16:27.282Z,98654.95
2023-03-24T16:18:59.835Z,98653.63
2023-03-24T16:21:49.633Z,98653.44
2023-03-24T16:24:18.600Z,98651.14
2023-03-24T16:27:08.921Z,98647.08
2023-03-24T16:29:41.629Z,98646.92
2023-03-24T18:52:59.025Z,98767.20
2023-03-24T18:55:53.474Z,98772.70
2023-03-24T19:42:25.956Z,98803.79
2023-03-24T19:44:59.167Z,98794.41
2023-03-24T19:47:35.888Z,98791.55
2023-03-24T19:50:09.448Z,98790.15
2023-03-24T19:52:47.009Z,98797.58
2023-03-24T19:55:23.838Z,98797.45
2023-03-24T19:58:00.651Z,98792.73
2023-03-24T20:00:34.172Z,98797.21
2023-03-24T20:03:08.528Z,98798.22
2023-03-24T20:05:43.569Z,98794.78
2023-03-24T20:08:14.300Z,98795.61
2023-03-24T20:17:02.738Z,98790.94
2023-03-24T20:19:59.386Z,98809.34
2023-03-24T20:22:51.703Z,98817.80
2023-03-24T20:25:24.538Z,98813.48
2023-03-24T20:27:57.117Z,98811.39
2023-03-24T20:30:30.556Z,98811.15
2023-03-24T20:33:03.496Z,98811.52
2023-03-24T20:35:37.094Z,98819.05
2023-03-24T20:38:08.234Z,98814.80
2023-03-24T20:40:39.179Z,98809.73
2023-03-24T20:43:10.796Z,98811.88
2023-03-24T20:45:42.262Z,98819.42
2023-03-24T20:48:15.559Z,98817.33
2023-03-24T20:50:49.577Z,98811.84
2023-03-24T20:53:21.207Z,98802.34
2023-03-24T20:56:05.714Z,98808.73
2023-03-24T20:58:42.745Z,98821.10
2023-03-24T21:01:27.326Z,98831.34
2023-03-24T21:04:08.352Z,98833.28
2023-03-24T21:06:41.844Z,98839.55
2023-03-24T21:09:23.543Z,98833.27
2023-03-24T21:11:57.355Z,98837.19
2023-03-24T21:14:31.042Z,98845.20
2023-03-24T21:21:30.452Z,98847.50
2023-03-24T21:24:05.534Z,98834.27
2023-03-24T21:26:39.056Z,98828.36
2023-03-24T21:29:13.435Z,98830.10
2023-03-24T21:31:44.618Z,98827.37
2023-03-24T21:34:18.344Z,98825.27
2023-03-24T21:36:54.095Z,98832.98
2023-03-24T21:39:25.246Z,98830.61
2023-03-24T22:32:39.128Z,98877.65
2023-03-24T22:35:09.860Z,98877.92
2023-03-24T22:37:38.934Z,98881.65
2023-03-24T22:40:10.332Z,98885.63
2023-03-24T22:42:41.591Z,98889.18
2023-03-24T22:45:14.340Z,98886.33
2023-03-24T22:47:43.289Z,98883.97
2023-03-24T22:54:37.461Z,98873.86
2023-03-24T22:57:30.282Z,98871.93
2023-03-24T23:06:20.079Z,98901.43
2023-03-24T23:08:52.629Z,98908.25
2023-03-24T23:11:21.554Z,98912.23
2023-03-24T23:13:52.685Z,98914.35
2023-03-24T23:16:23.016Z,98915.52
2023-03-24T23:18:57.685Z,98916.17
2023-03-24T23:21:30.724Z,98913.85
2023-03-24T23:24:01.000Z,98908.80
2023-03-24T23:26:31.913Z,98914.41
2023-03-24T23:29:03.548Z,98922.04
2023-03-24T23:31:36.076Z,98917.14
2023-03-24T23:34:07.844Z,98915.46
2023-03-24T23:36:40.001Z,98912.40
2023-03-24T23:39:10.762Z,98917.37
2023-03-24T23:41:40.158Z,98918.42
2023-03-24T23:44:15.283Z,98914.41
2023-03-24T23:46:46.740Z,98911.58
2023-03-24T23:49:17.642Z,98903.58
2023-03-24T23:51:51.039Z,98899.86
2023-03-24T23:54:20.133Z,98899.16
2023-03-24T23:56:54.294Z,98901.84
2023-03-24T23:59:25.203Z,98904.30
